createdAt,value
2017-09-29T00:01:09.444Z,54.23
2017-09-29T00:03:36.126Z,37.10
2017-09-29T00:06:02.804Z,39.87
2017-09-29T00:08:29.478Z,39.60
2017-09-29T00:10:56.132Z,43.07
2017-09-29T00:13:22.788Z,37.37
2017-09-29T00:15:49.456Z,45.03
2017-09-29T00:18:16.108Z,48.33
2017-09-29T00:20:42.776Z,32.30
2017-09-29T00:23:09.425Z,38.13
2017-09-29T00:25:36.090Z,42.80
2017-09-29T00:28:02.764Z,38.60
2017-09-29T00:30:29.411Z,45.33
2017-09-29T00:32:56.098Z,38.80
2017-09-29T00:35:22.768Z,32.93
2017-09-29T00:37:49.448Z,39.77
2017-09-29T00:40:16.105Z,34.30
2017-09-29T00:42:42.787Z,44.57
2017-09-29T00:45:09.627Z,55.30
2017-09-29T00:47:36.292Z,36.43
2017-09-29T00:50:03.115Z,46.03
2017-09-29T00:52:29.757Z,37.50
2017-09-29T00:54:56.407Z,46.20
2017-09-29T00:57:23.348Z,41.07
2017-09-29T00:59:49.999Z,48.27
2017-09-29T01:02:16.643Z,38.37
2017-09-29T01:04:43.316Z,45.20
2017-09-29T01:07:09.980Z,50.43
2017-09-29T01:09:36.631Z,58.90
2017-09-29T01:12:03.321Z,47.47
2017-09-29T01:14:30.009Z,50.87
2017-09-29T01:16:56.670Z,52.00
2017-09-29T01:19:23.357Z,48.07
2017-09-29T01:21:50.006Z,47.43
2017-09-29T01:24:16.652Z,49.27
2017-09-29T01:26:43.323Z,44.53
2017-09-29T01:29:10.000Z,60.57
2017-09-29T01:31:36.849Z,50.20
2017-09-29T01:34:03.500Z,44.20
2017-09-29T01:36:30.151Z,54.20
2017-09-29T01:38:56.827Z,55.17
2017-09-29T01:41:23.476Z,50.13
2017-09-29T01:43:50.161Z,49.20
2017-09-29T01:46:16.821Z,57.97
2017-09-29T01:48:43.498Z,49.10
2017-09-29T01:51:10.143Z,57.40
2017-09-29T01:53:36.819Z,53.50
2017-09-29T01:56:03.636Z,51.93
2017-09-29T01:58:30.289Z,46.93
2017-09-29T02:00:56.939Z,39.23
2017-09-29T02:03:24.177Z,51.47
2017-09-29T02:05:50.821Z,41.30
2017-09-29T02:08:17.480Z,45.43
2017-09-29T02:10:44.153Z,45.70
2017-09-29T02:13:10.820Z,53.37
2017-09-29T02:15:37.688Z,45.37
2017-09-29T02:18:04.370Z,45.17
2017-09-29T02:20:31.044Z,43.13
2017-09-29T02:22:57.719Z,54.23
2017-09-29T02:25:24.371Z,49.33
2017-09-29T02:27:51.398Z,44.47
2017-09-29T02:30:18.051Z,42.37
2017-09-29T02:32:44.704Z,45.20
2017-09-29T02:35:11.394Z,50.37
2017-09-29T02:37:38.044Z,47.47
2017-09-29T02:40:04.724Z,46.37
2017-09-29T02:42:31.371Z,51.33
2017-09-29T02:44:58.041Z,50.63
2017-09-29T02:47:24.727Z,47.00
2017-09-29T02:49:51.375Z,40.50
2017-09-29T02:52:18.060Z,46.23
2017-09-29T02:54:44.712Z,45.50
2017-09-29T02:57:13.395Z,53.20
2017-09-29T02:59:41.829Z,42.40
2017-09-29T03:02:10.332Z,46.90
2017-09-29T03:04:39.793Z,41.53
2017-09-29T03:07:06.445Z,53.07
2017-09-29T03:09:33.120Z,51.47
2017-09-29T03:11:59.892Z,48.73
2017-09-29T03:14:26.585Z,42.37
2017-09-29T03:16:53.230Z,55.10
2017-09-29T03:19:19.899Z,48.57
2017-09-29T03:21:46.575Z,54.63
2017-09-29T03:24:13.262Z,45.40
2017-09-29T03:26:39.936Z,46.97
2017-09-29T03:29:06.586Z,47.43
2017-09-29T03:31:33.257Z,47.47
2017-09-29T03:33:59.915Z,44.10
2017-09-29T03:36:26.572Z,44.40
2017-09-29T03:38:53.246Z,51.87
2017-09-29T03:41:19.916Z,53.57
2017-09-29T03:43:46.597Z,53.33
2017-09-29T03:46:13.300Z,47.90
2017-09-29T03:48:39.964Z,46.33
2017-09-29T03:51:08.300Z,52.50
2017-09-29T03:53:36.379Z,48.63
2017-09-29T03:56:14.759Z,44.67
2017-09-29T03:58:43.136Z,56.60
2017-09-29T04:01:09.808Z,58.27
2017-09-29T04:03:36.459Z,46.30
2017-09-29T04:06:03.242Z,40.07
2017-09-29T04:08:30.097Z,45.00
2017-09-29T04:10:56.752Z,43.60
2017-09-29T04:13:23.431Z,48.20
2017-09-29T04:15:50.087Z,50.53
2017-09-29T04:18:16.766Z,62.40
2017-09-29T04:20:43.429Z,54.07
2017-09-29T04:23:10.332Z,41.63
2017-09-29T04:25:36.979Z,51.47
2017-09-29T04:28:03.629Z,54.47
2017-09-29T04:30:30.297Z,48.47
2017-09-29T04:32:56.965Z,47.13
2017-09-29T04:35:23.632Z,50.60
2017-09-29T04:37:50.299Z,50.27
2017-09-29T04:40:16.973Z,59.27
2017-09-29T04:42:43.647Z,63.40
2017-09-29T04:45:10.300Z,46.87
2017-09-29T04:47:36.976Z,48.87
2017-09-29T04:50:03.637Z,49.23
2017-09-29T04:52:30.281Z,38.60
2017-09-29T04:54:56.956Z,54.87
2017-09-29T04:57:23.601Z,59.90
2017-09-29T04:59:50.271Z,51.63
2017-09-29T05:02:16.926Z,56.60
2017-09-29T05:04:43.593Z,50.07
2017-09-29T05:07:10.268Z,51.70
2017-09-29T05:09:36.922Z,57.10
2017-09-29T05:12:03.872Z,62.30
2017-09-29T05:14:30.533Z,48.40
2017-09-29T05:16:57.191Z,53.60
2017-09-29T05:19:23.864Z,76.97
2017-09-29T05:21:50.508Z,69.77
2017-09-29T05:24:17.180Z,62.03
2017-09-29T05:26:43.825Z,61.20
2017-09-29T05:29:10.528Z,54.57
2017-09-29T05:31:37.182Z,52.00
2017-09-29T05:34:03.824Z,47.03
2017-09-29T05:36:30.472Z,46.30
2017-09-29T05:38:57.147Z,57.67
2017-09-29T05:41:23.807Z,50.17
2017-09-29T05:43:50.484Z,164.47
2017-09-29T05:46:17.155Z,63.57
2017-09-29T05:48:43.836Z,63.90
2017-09-29T05:51:10.485Z,51.10
2017-09-29T05:53:37.129Z,54.63
2017-09-29T05:56:03.800Z,53.57
2017-09-29T05:58:30.458Z,55.37
2017-09-29T06:00:57.128Z,54.30
2017-09-29T06:03:23.846Z,54.60
2017-09-29T06:05:50.532Z,51.00
2017-09-29T06:08:17.182Z,53.37
2017-09-29T06:10:43.851Z,42.00
2017-09-29T06:13:10.526Z,52.43
2017-09-29T06:15:37.185Z,53.30
2017-09-29T06:18:03.865Z,55.13
2017-09-29T06:20:30.512Z,52.20
2017-09-29T06:22:57.192Z,51.80
2017-09-29T06:25:23.860Z,54.97
2017-09-29T06:27:50.518Z,51.80
2017-09-29T06:30:17.197Z,46.70
2017-09-29T06:32:43.846Z,43.73
2017-09-29T06:35:10.784Z,57.70
2017-09-29T06:37:37.432Z,51.30
2017-09-29T06:40:04.098Z,60.70
2017-09-29T06:42:30.768Z,49.47
2017-09-29T06:44:57.433Z,50.07
2017-09-29T06:47:24.108Z,54.60
2017-09-29T06:49:50.785Z,46.83
2017-09-29T06:52:17.436Z,54.10
2017-09-29T06:54:44.120Z,41.30
2017-09-29T06:57:10.776Z,47.77
2017-09-29T06:59:37.444Z,39.93
2017-09-29T07:02:04.089Z,44.23
2017-09-29T07:04:31.290Z,36.03
2017-09-29T07:06:57.953Z,44.00
2017-09-29T07:09:24.600Z,38.53
2017-09-29T07:11:51.269Z,42.30
2017-09-29T07:14:17.937Z,40.30
2017-09-29T07:16:44.592Z,42.57
2017-09-29T07:19:11.241Z,41.27
2017-09-29T07:21:37.906Z,39.70
2017-09-29T07:24:04.580Z,28.43
2017-09-29T07:26:32.228Z,32.73
2017-09-29T07:29:01.396Z,34.60
2017-09-29T07:31:28.992Z,32.37
2017-09-29T07:33:55.660Z,35.87
2017-09-29T07:36:22.312Z,30.30
2017-09-29T07:38:49.277Z,34.33
2017-09-29T07:41:15.968Z,32.17
2017-09-29T07:43:42.616Z,39.83
2017-09-29T07:46:09.267Z,29.93
2017-09-29T07:48:35.940Z,43.30
2017-09-29T07:51:02.979Z,30.07
2017-09-29T07:53:29.628Z,43.37
2017-09-29T07:55:56.276Z,32.10
2017-09-29T07:58:23.330Z,30.20
2017-09-29T08:00:49.987Z,36.37
2017-09-29T08:03:16.635Z,31.27
2017-09-29T08:05:43.312Z,27.90
2017-09-29T08:08:09.989Z,32.60
2017-09-29T08:10:36.669Z,46.17
2017-09-29T08:13:03.357Z,29.10
2017-09-29T08:15:30.037Z,29.00
2017-09-29T08:17:56.681Z,24.03
2017-09-29T08:20:23.355Z,25.77
2017-09-29T08:22:50.024Z,25.33
2017-09-29T08:25:16.673Z,23.40
2017-09-29T08:27:43.344Z,27.17
2017-09-29T08:30:09.988Z,25.57
2017-09-29T08:32:36.660Z,36.83
2017-09-29T08:35:03.342Z,38.70
2017-09-29T08:37:30.023Z,26.10
2017-09-29T08:39:56.833Z,35.57
2017-09-29T08:42:23.653Z,33.20
2017-09-29T08:44:50.309Z,22.13
2017-09-29T08:47:16.990Z,27.40
2017-09-29T08:49:43.664Z,26.27
2017-09-29T08:52:10.312Z,31.67
2017-09-29T08:54:36.992Z,31.07
2017-09-29T08:57:03.640Z,25.43
2017-09-29T08:59:30.664Z,40.53
2017-09-29T09:01:57.314Z,23.30
2017-09-29T09:04:23.980Z,25.33
2017-09-29T09:06:50.644Z,22.03
2017-09-29T09:09:17.290Z,30.23
2017-09-29T09:11:44.273Z,29.63
2017-09-29T09:14:10.921Z,25.57
2017-09-29T09:16:37.564Z,23.70
2017-09-29T09:19:04.232Z,27.37
2017-09-29T09:21:30.912Z,17.87
2017-09-29T09:23:57.557Z,25.37
2017-09-29T09:26:24.228Z,23.53
2017-09-29T09:28:50.881Z,21.63
2017-09-29T09:31:17.560Z,19.17
2017-09-29T09:33:44.204Z,22.27
2017-09-29T09:36:10.906Z,27.53
2017-09-29T09:38:37.585Z,18.07
2017-09-29T09:41:04.228Z,21.20
2017-09-29T09:43:31.121Z,31.00
2017-09-29T09:45:57.768Z,20.57
2017-09-29T09:48:24.634Z,19.40
2017-09-29T09:50:51.304Z,25.87
2017-09-29T09:53:17.948Z,27.63
2017-09-29T09:55:44.619Z,15.63
2017-09-29T09:58:11.270Z,26.87
2017-09-29T10:00:37.936Z,21.00
2017-09-29T10:03:04.637Z,23.43
2017-09-29T10:05:31.283Z,29.40
2017-09-29T10:07:57.940Z,23.73
2017-09-29T10:10:24.652Z,31.43
2017-09-29T10:12:51.309Z,21.63
2017-09-29T10:15:17.984Z,18.60
2017-09-29T10:17:44.653Z,27.37
2017-09-29T10:20:11.325Z,22.77
2017-09-29T10:22:37.996Z,18.10
2017-09-29T10:25:04.686Z,21.93
2017-09-29T10:27:31.358Z,20.53
2017-09-29T10:29:58.036Z,28.20
2017-09-29T10:32:24.685Z,22.43
2017-09-29T10:34:51.368Z,19.00
2017-09-29T10:37:18.013Z,15.23
2017-09-29T10:39:44.682Z,17.10
2017-09-29T10:42:11.327Z,14.83
2017-09-29T10:44:38.268Z,19.47
2017-09-29T10:47:04.913Z,17.80
2017-09-29T10:49:31.560Z,23.23
2017-09-29T10:51:58.225Z,26.07
2017-09-29T10:54:24.881Z,18.07
2017-09-29T10:56:51.556Z,25.87
2017-09-29T10:59:18.225Z,20.30
2017-09-29T11:01:44.898Z,20.57
2017-09-29T11:04:11.563Z,30.00
2017-09-29T11:06:38.648Z,28.47
2017-09-29T11:09:05.295Z,18.43
2017-09-29T11:11:31.940Z,18.00
2017-09-29T11:13:58.615Z,23.30
2017-09-29T11:16:25.265Z,21.40
2017-09-29T11:18:51.941Z,19.53
2017-09-29T11:21:18.600Z,20.50
2017-09-29T11:23:45.251Z,19.03
2017-09-29T11:26:11.937Z,26.67
2017-09-29T11:28:38.578Z,19.10
2017-09-29T11:31:05.233Z,21.20
2017-09-29T11:33:31.912Z,18.87
2017-09-29T11:35:58.560Z,16.70
2017-09-29T11:38:25.238Z,16.13
2017-09-29T11:40:51.912Z,18.80
2017-09-29T11:43:18.570Z,12.63
2017-09-29T11:45:45.373Z,11.30
2017-09-29T11:48:12.029Z,15.00
2017-09-29T11:50:38.678Z,13.17
2017-09-29T11:53:05.354Z,15.33
2017-09-29T11:55:31.995Z,15.43
2017-09-29T11:57:58.668Z,11.10
2017-09-29T12:00:25.326Z,17.00
2017-09-29T12:02:51.998Z,14.00
2017-09-29T12:05:18.945Z,19.93
2017-09-29T12:07:45.600Z,15.77
2017-09-29T12:10:12.510Z,15.30
2017-09-29T12:12:39.174Z,11.57
2017-09-29T12:15:05.852Z,12.03
2017-09-29T12:17:32.509Z,21.13
2017-09-29T12:19:59.175Z,10.67
2017-09-29T12:22:25.842Z,16.90
2017-09-29T12:24:52.594Z,14.37
2017-09-29T12:27:19.635Z,10.03
2017-09-29T12:29:46.282Z,15.60
2017-09-29T12:32:12.937Z,17.00
2017-09-29T12:34:39.604Z,18.00
2017-09-29T12:37:06.251Z,12.10
2017-09-29T12:39:32.928Z,11.40
2017-09-29T12:41:59.587Z,12.90
2017-09-29T12:44:26.237Z,11.67
2017-09-29T12:46:52.913Z,10.83
2017-09-29T12:49:19.576Z,10.43
2017-09-29T12:51:46.246Z,13.73
2017-09-29T12:54:12.920Z,14.47
2017-09-29T12:56:39.582Z,9.40
2017-09-29T12:59:06.227Z,10.20
2017-09-29T13:01:33.220Z,10.10
2017-09-29T13:03:59.876Z,11.63
2017-09-29T13:06:26.550Z,9.10
2017-09-29T13:08:53.220Z,11.43
2017-09-29T13:11:20.089Z,10.67
2017-09-29T13:13:46.740Z,11.73
2017-09-29T13:16:13.382Z,7.73
2017-09-29T13:18:40.077Z,9.50
2017-09-29T13:21:06.750Z,9.07
2017-09-29T13:23:33.421Z,10.90
2017-09-29T13:26:00.065Z,9.67
2017-09-29T13:28:26.733Z,9.23
2017-09-29T13:30:53.375Z,10.80
2017-09-29T13:33:21.760Z,11.40
2017-09-29T13:35:48.513Z,10.10
2017-09-29T13:38:15.190Z,10.20
2017-09-29T13:40:41.869Z,11.53
2017-09-29T13:43:08.520Z,10.47
2017-09-29T13:45:35.161Z,14.03
2017-09-29T13:48:01.820Z,36.20
2017-09-29T13:50:28.478Z,10.27
2017-09-29T13:52:55.249Z,9.27
2017-09-29T13:55:21.901Z,12.73
2017-09-29T13:57:48.541Z,9.27
2017-09-29T14:00:15.460Z,10.27
2017-09-29T14:02:42.104Z,11.47
2017-09-29T14:05:08.768Z,11.30
2017-09-29T14:07:35.456Z,11.60
2017-09-29T14:10:02.108Z,10.87
2017-09-29T14:12:28.791Z,17.87
2017-09-29T14:14:55.473Z,15.70
2017-09-29T14:17:22.152Z,17.37
2017-09-29T14:19:48.828Z,46.73
2017-09-29T14:22:15.832Z,19.17
2017-09-29T14:24:42.674Z,20.80
2017-09-29T14:27:09.325Z,11.93
2017-09-29T14:29:36.001Z,14.00
2017-09-29T14:32:02.653Z,13.73
2017-09-29T14:34:29.456Z,18.20
2017-09-29T14:36:57.081Z,17.93
2017-09-29T14:39:23.749Z,15.87
2017-09-29T14:41:50.428Z,22.40
2017-09-29T14:44:17.071Z,16.87
2017-09-29T14:46:43.760Z,13.70
2017-09-29T14:49:10.416Z,14.93
2017-09-29T14:51:37.074Z,25.53
2017-09-29T14:54:03.906Z,16.50
2017-09-29T14:56:30.568Z,19.67
2017-09-29T14:58:57.227Z,23.13
2017-09-29T15:01:24.139Z,34.83
2017-09-29T15:03:50.787Z,21.00
2017-09-29T15:06:17.440Z,23.53
2017-09-29T15:08:44.119Z,17.60
2017-09-29T15:11:10.792Z,23.30
2017-09-29T15:13:38.879Z,20.47
2017-09-29T15:16:05.620Z,20.93
2017-09-29T15:18:32.294Z,18.53
2017-09-29T15:20:58.964Z,19.73
2017-09-29T15:23:25.617Z,18.77
2017-09-29T15:25:52.260Z,29.33
2017-09-29T15:28:18.925Z,18.73
2017-09-29T15:30:45.699Z,25.60
2017-09-29T15:33:12.347Z,23.23
2017-09-29T15:35:38.997Z,24.83
2017-09-29T15:38:05.675Z,23.43
2017-09-29T15:40:32.349Z,18.00
2017-09-29T15:42:59.002Z,28.60
2017-09-29T15:45:25.823Z,25.67
2017-09-29T15:47:52.493Z,24.67
2017-09-29T15:50:19.145Z,21.13
2017-09-29T15:52:46.050Z,23.53
2017-09-29T15:55:12.713Z,17.80
2017-09-29T15:57:39.371Z,22.40
2017-09-29T16:00:06.056Z,29.47
2017-09-29T16:02:32.709Z,22.00
2017-09-29T16:04:59.392Z,19.80
2017-09-29T16:07:26.042Z,18.43
2017-09-29T16:09:52.688Z,19.33
2017-09-29T16:12:19.352Z,20.80
2017-09-29T16:14:46.000Z,44.40
2017-09-29T16:17:12.960Z,28.40
2017-09-29T16:19:39.627Z,20.53
2017-09-29T16:22:06.281Z,29.60
2017-09-29T16:24:33.202Z,29.83
2017-09-29T16:26:59.868Z,34.67
2017-09-29T16:29:26.528Z,22.57
2017-09-29T16:31:53.209Z,21.93
2017-09-29T16:34:19.880Z,22.80
2017-09-29T16:36:46.572Z,25.17
2017-09-29T16:39:13.650Z,24.97
2017-09-29T16:41:40.297Z,28.80
2017-09-29T16:44:06.972Z,26.27
2017-09-29T16:46:33.661Z,26.60
2017-09-29T16:49:00.304Z,33.73
2017-09-29T16:51:26.950Z,31.33
2017-09-29T16:53:53.616Z,30.73
2017-09-29T16:56:20.261Z,31.90
2017-09-29T16:58:46.919Z,27.13
2017-09-29T17:01:13.592Z,29.93
2017-09-29T17:03:40.251Z,25.43
2017-09-29T17:06:07.033Z,32.00
2017-09-29T17:08:33.829Z,28.00
2017-09-29T17:11:00.476Z,36.13
2017-09-29T17:13:27.120Z,27.80
2017-09-29T17:15:53.789Z,34.53
2017-09-29T17:18:20.443Z,35.77
2017-09-29T17:20:47.270Z,39.93
2017-09-29T17:23:14.013Z,34.53
2017-09-29T17:25:40.665Z,35.80
2017-09-29T17:28:07.349Z,27.30
2017-09-29T17:30:34.011Z,32.60
2017-09-29T17:33:00.832Z,45.03
2017-09-29T17:35:27.485Z,41.63
2017-09-29T17:37:54.136Z,31.20
2017-09-29T17:40:20.809Z,32.03
2017-09-29T17:42:47.461Z,42.60
2017-09-29T17:45:14.114Z,39.80
2017-09-29T17:47:40.780Z,34.90
2017-09-29T17:50:07.427Z,41.70
2017-09-29T17:52:34.100Z,32.57
2017-09-29T17:55:00.751Z,27.60
2017-09-29T17:57:27.700Z,32.53
2017-09-29T17:59:54.375Z,33.80
2017-09-29T18:02:21.041Z,37.07
2017-09-29T18:04:47.709Z,28.50
2017-09-29T18:07:14.369Z,28.07
2017-09-29T18:09:41.053Z,27.17
2017-09-29T18:12:07.959Z,27.67
2017-09-29T18:14:34.616Z,29.80
2017-09-29T18:17:01.264Z,36.30
2017-09-29T18:19:28.138Z,28.57
2017-09-29T18:21:54.779Z,35.83
2017-09-29T18:24:21.437Z,25.53
2017-09-29T18:26:48.312Z,30.90
2017-09-29T18:29:14.961Z,26.17
2017-09-29T18:31:41.795Z,23.47
2017-09-29T18:34:08.447Z,30.70
2017-09-29T18:36:35.386Z,45.70
2017-09-29T18:39:02.049Z,27.87
2017-09-29T18:41:32.234Z,30.50
2017-09-29T18:44:00.845Z,30.77
2017-09-29T18:46:30.945Z,32.03
2017-09-29T18:48:57.625Z,29.30
2017-09-29T18:51:24.311Z,29.10
2017-09-29T18:53:50.961Z,31.63
2017-09-29T18:56:17.624Z,41.40
2017-09-29T18:58:44.278Z,34.90
2017-09-29T19:01:10.980Z,40.77
2017-09-29T19:03:37.630Z,28.07
2017-09-29T19:06:04.271Z,35.23
2017-09-29T19:08:31.135Z,38.83
2017-09-29T19:10:57.791Z,49.13
2017-09-29T19:13:24.460Z,39.23
2017-09-29T19:15:51.148Z,43.97
2017-09-29T19:25:00.468Z,108.10
2017-09-29T19:27:27.136Z,55.63
2017-09-29T19:29:54.138Z,48.43
2017-09-29T19:32:20.784Z,57.23
2017-09-29T19:34:47.432Z,42.27
2017-09-29T19:37:14.104Z,32.60
2017-09-29T19:39:41.110Z,37.83
2017-09-29T19:42:08.687Z,30.40
2017-09-29T19:44:35.366Z,29.23
2017-09-29T19:47:02.024Z,38.33
2017-09-29T19:49:28.699Z,34.67
2017-09-29T19:51:55.399Z,44.83
2017-09-29T19:54:22.052Z,97.20
2017-09-29T19:56:48.704Z,136.03
2017-09-29T19:59:15.680Z,53.27
2017-09-29T20:01:42.324Z,38.10
2017-09-29T20:04:08.980Z,36.87
2017-09-29T20:06:36.142Z,52.40
2017-09-29T20:09:02.793Z,36.73
2017-09-29T20:11:29.444Z,41.83
2017-09-29T20:13:57.017Z,34.40
2017-09-29T20:16:23.776Z,33.57
2017-09-29T20:18:50.489Z,38.07
2017-09-29T20:21:17.382Z,33.70
2017-09-29T20:23:44.053Z,33.90
2017-09-29T20:26:10.705Z,35.07
2017-09-29T20:28:38.085Z,31.80
2017-09-29T20:31:04.752Z,34.80
2017-09-29T20:33:31.406Z,28.67
2017-09-29T20:35:58.080Z,37.73
2017-09-29T20:38:24.893Z,37.33
2017-09-29T20:40:51.553Z,37.70
2017-09-29T20:43:18.399Z,46.90
2017-09-29T20:45:45.081Z,53.40
2017-09-29T20:48:11.762Z,40.27
2017-09-29T20:50:38.421Z,35.53
2017-09-29T20:53:05.089Z,31.90
2017-09-29T20:55:32.143Z,36.37
2017-09-29T20:57:58.807Z,40.40
2017-09-29T21:00:25.813Z,31.50
2017-09-29T21:02:52.512Z,36.37
2017-09-29T21:05:19.582Z,38.50
2017-09-29T21:07:46.241Z,38.83
2017-09-29T21:10:13.228Z,31.47
2017-09-29T21:12:39.909Z,42.33
2017-09-29T21:15:06.581Z,45.33
2017-09-29T21:17:33.239Z,35.63
2017-09-29T21:19:59.925Z,44.87
2017-09-29T21:22:26.597Z,37.83
2017-09-29T21:24:53.280Z,48.47
2017-09-29T21:27:19.954Z,31.43
2017-09-29T21:29:46.605Z,29.00
2017-09-29T21:32:13.285Z,36.10
2017-09-29T21:34:39.937Z,38.80
2017-09-29T21:37:06.580Z,42.37
2017-09-29T21:39:33.264Z,37.57
2017-09-29T21:41:59.912Z,44.07
2017-09-29T21:44:26.812Z,42.03
2017-09-29T21:46:53.459Z,41.80
2017-09-29T21:49:20.104Z,39.33
2017-09-29T21:51:47.172Z,46.73
2017-09-29T21:54:13.856Z,49.13
2017-09-29T21:56:40.499Z,43.00
2017-09-29T21:59:07.171Z,40.77
2017-09-29T22:01:33.856Z,35.77
2017-09-29T22:04:00.519Z,41.67
2017-09-29T22:06:27.206Z,35.07
2017-09-29T22:08:53.884Z,55.30
2017-09-29T22:11:20.804Z,49.80
2017-09-29T22:13:47.452Z,41.47
2017-09-29T22:16:14.100Z,49.57
2017-09-29T22:18:40.776Z,39.43
2017-09-29T22:21:07.457Z,41.43
2017-09-29T22:23:34.111Z,34.97
2017-09-29T22:26:00.876Z,40.00
2017-09-29T22:28:27.535Z,39.50
2017-09-29T22:30:54.188Z,46.00
2017-09-29T22:33:20.864Z,40.70
2017-09-29T22:35:47.511Z,41.50
2017-09-29T22:38:14.177Z,38.00
2017-09-29T22:40:40.827Z,39.13
2017-09-29T22:43:07.856Z,33.57
2017-09-29T22:45:34.500Z,35.37
2017-09-29T22:48:01.166Z,41.97
2017-09-29T22:50:28.082Z,34.50
2017-09-29T22:52:54.738Z,34.90
2017-09-29T22:55:21.497Z,49.50
2017-09-29T22:57:48.608Z,28.87
2017-09-29T23:00:15.260Z,43.93
2017-09-29T23:02:41.948Z,38.80
2017-09-29T23:05:08.618Z,33.40
2017-09-29T23:07:35.304Z,36.47
2017-09-29T23:10:01.994Z,41.87
2017-09-29T23:12:28.783Z,31.47
2017-09-29T23:14:55.432Z,35.60
2017-09-29T23:17:22.080Z,43.23
2017-09-29T23:19:48.751Z,39.03
2017-09-29T23:22:15.412Z,39.27
2017-09-29T23:24:42.090Z,41.03
2017-09-29T23:27:08.740Z,44.27
2017-09-29T23:29:35.408Z,49.00
2017-09-29T23:32:02.058Z,36.97
2017-09-29T23:34:28.743Z,34.07
2017-09-29T23:36:55.397Z,36.90
2017-09-29T23:39:22.141Z,48.20
2017-09-29T23:41:48.819Z,47.10
2017-09-29T23:44:15.473Z,47.67
2017-09-29T23:46:42.122Z,81.97
2017-09-29T23:49:08.806Z,41.37
2017-09-29T23:51:35.452Z,48.10
2017-09-29T23:54:02.099Z,48.27
2017-09-29T23:56:29.024Z,54.13
2017-09-29T23:58:55.681Z,52.97
